createdAt,value
2023-02-18T00:00:42.267Z,18.20
2023-02-18T00:01:46.855Z,23.23
2023-02-18T00:02:52.824Z,22.15
2023-02-18T00:03:54.881Z,16.73
2023-02-18T00:04:59.502Z,16.48
2023-02-18T00:06:01.509Z,16.48
2023-02-18T00:07:06.204Z,17.42
2023-02-18T00:08:08.212Z,17.60
2023-02-18T00:09:14.170Z,16.85
2023-02-18T00:10:16.977Z,19.75
2023-02-18T00:11:23.434Z,12.40
2023-02-18T00:12:25.480Z,14.20
2023-02-18T00:13:30.418Z,15.15
2023-02-18T00:14:35.403Z,15.68
2023-02-18T00:15:38.345Z,18.38
2023-02-18T00:16:43.607Z,18.50
2023-02-18T00:17:48.206Z,18.02
2023-02-18T00:18:53.083Z,19.85
2023-02-18T00:19:57.851Z,17.42
2023-02-18T00:21:02.573Z,12.13
2023-02-18T00:22:04.597Z,16.25
2023-02-18T00:23:09.825Z,16.10
2023-02-18T00:24:15.378Z,14.43
2023-02-18T00:25:20.315Z,13.10
2023-02-18T00:26:22.861Z,11.80
2023-02-18T00:27:27.522Z,9.25
2023-02-18T00:28:29.919Z,11.35
2023-02-18T00:29:35.667Z,5.53
2023-02-18T00:30:40.910Z,16.15
2023-02-18T00:31:45.912Z,18.60
2023-02-18T00:32:50.661Z,12.40
2023-02-18T00:33:55.582Z,21.20
2023-02-18T00:34:57.672Z,10.20
2023-02-18T00:36:05.964Z,10.57
2023-02-18T00:37:10.763Z,17.17
2023-02-18T00:38:12.829Z,13.73
2023-02-18T00:39:17.558Z,13.18
2023-02-18T00:40:20.174Z,12.02
2023-02-18T00:41:26.804Z,9.38
2023-02-18T00:42:29.406Z,14.45
2023-02-18T00:43:34.038Z,14.70
2023-02-18T00:44:36.129Z,10.05
2023-02-18T00:45:40.850Z,9.70
2023-02-18T00:46:43.107Z,17.95
2023-02-18T00:47:47.763Z,9.07
2023-02-18T00:48:52.595Z,16.63
2023-02-18T00:49:57.204Z,10.10
2023-02-18T00:51:00.872Z,9.27
2023-02-18T00:52:05.693Z,9.40
2023-02-18T00:53:07.835Z,15.68
2023-02-18T00:54:12.720Z,18.58
2023-02-18T00:55:14.860Z,15.15
2023-02-18T00:56:19.820Z,13.55
2023-02-18T00:57:21.879Z,13.90
2023-02-18T00:58:26.666Z,10.43
2023-02-18T00:59:31.226Z,13.48
2023-02-18T01:00:33.697Z,10.38
2023-02-18T01:01:38.399Z,11.85
2023-02-18T01:02:40.434Z,13.48
2023-02-18T01:03:46.505Z,17.35
2023-02-18T01:04:51.232Z,12.77
2023-02-18T01:05:56.586Z,10.05
2023-02-18T01:06:59.262Z,16.15
2023-02-18T01:08:03.888Z,10.77
2023-02-18T01:09:06.418Z,11.68
2023-02-18T01:10:11.591Z,11.15
2023-02-18T01:11:14.534Z,14.10
2023-02-18T01:12:19.522Z,15.25
2023-02-18T01:13:22.387Z,14.18
2023-02-18T01:14:27.091Z,6.60
2023-02-18T01:15:29.129Z,16.52
2023-02-18T01:16:33.785Z,9.82
2023-02-18T01:17:36.110Z,12.50
2023-02-18T01:18:41.704Z,11.85
2023-02-18T01:19:44.003Z,16.45
2023-02-18T01:20:51.586Z,17.80
2023-02-18T01:21:53.831Z,15.85
2023-02-18T01:22:58.414Z,17.52
2023-02-18T01:24:00.459Z,7.65
2023-02-18T01:25:05.571Z,8.80
2023-02-18T01:26:08.311Z,8.75
2023-02-18T01:27:13.088Z,6.00
2023-02-18T01:28:15.964Z,16.55
2023-02-18T01:29:20.532Z,11.60
2023-02-18T01:30:22.796Z,8.65
2023-02-18T01:31:28.025Z,11.20
2023-02-18T01:32:30.289Z,14.65
2023-02-18T01:33:35.122Z,16.00
2023-02-18T01:34:37.303Z,13.20
2023-02-18T01:35:42.943Z,14.00
2023-02-18T01:36:47.605Z,14.95
2023-02-18T01:37:52.231Z,11.07
2023-02-18T01:38:54.301Z,14.55
2023-02-18T01:39:59.023Z,18.15
2023-02-18T01:41:01.053Z,13.95
2023-02-18T01:42:05.708Z,12.93
2023-02-18T01:43:10.378Z,12.45
2023-02-18T01:44:20.580Z,10.65
2023-02-18T01:45:52.029Z,13.10
2023-02-18T01:46:57.337Z,15.43
2023-02-18T01:48:00.073Z,8.95
2023-02-18T01:49:05.064Z,11.98
2023-02-18T01:50:07.766Z,15.88
2023-02-18T01:51:16.613Z,6.20
2023-02-18T01:52:25.922Z,9.73
2023-02-18T01:53:36.143Z,16.45
2023-02-18T01:54:43.257Z,11.13
2023-02-18T01:55:49.161Z,13.90
2023-02-18T01:56:57.963Z,15.13
2023-02-18T01:58:00.432Z,12.80
2023-02-18T01:59:10.433Z,11.35
2023-02-18T02:00:17.170Z,13.25
2023-02-18T02:01:21.757Z,10.98
2023-02-18T02:02:29.337Z,6.65
2023-02-18T02:03:34.089Z,10.85
2023-02-18T02:04:36.135Z,11.18
2023-02-18T02:05:40.712Z,12.50
2023-02-18T02:06:44.212Z,10.38
2023-02-18T02:07:55.772Z,13.75
2023-02-18T02:10:05.050Z,11.32
2023-02-18T02:11:17.272Z,15.88
2023-02-18T02:12:40.922Z,10.95
2023-02-18T02:13:59.608Z,14.93
2023-02-18T02:15:21.531Z,14.65
2023-02-18T02:17:43.097Z,17.73
2023-02-18T02:18:56.773Z,19.67
2023-02-18T02:20:35.995Z,19.40
2023-02-18T02:22:10.103Z,13.70
2023-02-18T02:23:43.552Z,15.60
2023-02-18T02:25:07.303Z,22.92
2023-02-18T02:26:46.286Z,16.92
2023-02-18T02:28:21.352Z,23.75
2023-02-18T02:30:01.784Z,18.05
2023-02-18T02:31:30.715Z,23.92
2023-02-18T02:33:20.095Z,15.50
2023-02-18T02:34:33.528Z,11.80
2023-02-18T02:35:41.032Z,17.42
2023-02-18T02:36:49.640Z,9.27
2023-02-18T02:38:04.886Z,18.83
2023-02-18T02:39:14.309Z,15.32
2023-02-18T02:40:31.448Z,16.98
2023-02-18T02:41:45.033Z,13.55
2023-02-18T02:42:56.606Z,16.35
2023-02-18T02:45:14.137Z,15.00
2023-02-18T02:46:21.835Z,15.00
2023-02-18T02:47:35.403Z,13.63
2023-02-18T02:48:45.738Z,18.17
2023-02-18T02:50:01.182Z,21.42
2023-02-18T02:51:10.616Z,6.70
2023-02-18T02:52:17.696Z,15.15
2023-02-18T02:53:27.426Z,14.73
2023-02-18T02:54:30.098Z,14.50
2023-02-18T02:55:34.809Z,18.27
2023-02-18T02:56:36.908Z,19.40
2023-02-18T02:57:52.021Z,16.80
2023-02-18T02:59:00.459Z,18.60
2023-02-18T03:00:10.453Z,21.05
2023-02-18T03:01:27.630Z,17.40
2023-02-18T03:02:40.752Z,16.33
2023-02-18T03:04:02.085Z,17.05
2023-02-18T03:05:23.314Z,15.52
2023-02-18T03:06:43.921Z,16.63
2023-02-18T03:08:15.965Z,25.95
2023-02-18T03:09:27.547Z,12.85
2023-02-18T03:10:57.166Z,17.88
2023-02-18T03:12:06.680Z,18.70
2023-02-18T03:13:19.804Z,16.92
2023-02-18T03:14:29.927Z,18.52
2023-02-18T03:15:42.715Z,16.02
2023-02-18T03:16:50.086Z,15.27
2023-02-18T03:18:01.992Z,21.20
2023-02-18T03:19:10.446Z,13.15
2023-02-18T03:20:26.589Z,8.82
2023-02-18T03:21:32.197Z,9.43
2023-02-18T03:22:42.169Z,17.70
2023-02-18T03:23:49.892Z,17.05
2023-02-18T03:24:57.517Z,20.00
2023-02-18T03:26:00.961Z,15.70
2023-02-18T03:27:10.683Z,23.98
2023-02-18T03:28:17.466Z,12.35
2023-02-18T03:29:24.394Z,12.13
2023-02-18T03:30:30.523Z,14.30
2023-02-18T03:31:40.604Z,9.43
2023-02-18T03:32:45.764Z,11.73
2023-02-18T03:33:54.491Z,20.55
2023-02-18T03:35:01.186Z,18.33
2023-02-18T03:36:10.161Z,22.00
2023-02-18T03:37:14.535Z,16.73
2023-02-18T03:38:25.022Z,15.30
2023-02-18T03:39:29.691Z,16.45
2023-02-18T03:40:34.819Z,12.50
2023-02-18T03:41:37.130Z,19.15
2023-02-18T03:42:41.765Z,32.28
2023-02-18T03:43:50.152Z,19.85
2023-02-18T03:44:54.784Z,29.42
2023-02-18T03:45:56.881Z,23.02
2023-02-18T03:47:02.073Z,29.40
2023-02-18T03:48:04.662Z,27.63
2023-02-18T03:49:09.665Z,17.27
2023-02-18T03:50:11.758Z,13.00
2023-02-18T03:51:19.821Z,21.38
2023-02-18T03:52:22.114Z,8.27
2023-02-18T03:53:26.708Z,24.40
2023-02-18T03:54:28.753Z,14.95
2023-02-18T03:55:33.461Z,13.45
2023-02-18T03:56:36.549Z,22.55
2023-02-18T03:57:41.259Z,15.50
2023-02-18T03:58:44.044Z,18.00
2023-02-18T03:59:49.136Z,26.80
2023-02-18T04:00:52.200Z,29.58
2023-02-18T04:01:57.151Z,28.95
2023-02-18T04:02:59.302Z,60.40
2023-02-18T04:04:04.528Z,27.08
2023-02-18T04:05:07.674Z,24.83
2023-02-18T04:06:12.598Z,32.08
2023-02-18T04:07:18.682Z,19.60
2023-02-18T04:08:23.807Z,17.50
2023-02-18T04:09:25.955Z,18.40
2023-02-18T04:10:31.012Z,6.43
2023-02-18T04:11:33.298Z,10.95
2023-02-18T04:12:38.074Z,24.10
2023-02-18T04:13:40.318Z,14.93
2023-02-18T04:14:45.431Z,18.75
2023-02-18T04:15:52.490Z,28.33
2023-02-18T04:16:54.569Z,26.90
2023-02-18T04:17:59.847Z,26.15
2023-02-18T04:19:02.062Z,31.83
2023-02-18T04:20:07.772Z,43.50
2023-02-18T04:21:09.902Z,22.55
2023-02-18T04:22:14.501Z,22.63
2023-02-18T04:23:19.386Z,20.45
2023-02-18T04:24:29.741Z,22.55
2023-02-18T04:25:32.922Z,23.35
2023-02-18T04:26:37.914Z,32.40
2023-02-18T04:27:42.823Z,21.50
2023-02-18T04:28:47.008Z,27.30
2023-02-18T04:29:52.918Z,32.85
2023-02-18T04:30:54.998Z,30.88
2023-02-18T04:32:00.012Z,27.40
2023-02-18T04:33:03.339Z,30.20
2023-02-18T04:34:08.430Z,32.35
2023-02-18T04:35:10.566Z,27.33
2023-02-18T04:36:15.845Z,32.10
2023-02-18T04:37:20.625Z,22.25
2023-02-18T04:38:25.362Z,27.77
2023-02-18T04:39:30.675Z,28.83
2023-02-18T04:40:32.839Z,36.67
2023-02-18T04:41:37.876Z,28.48
2023-02-18T04:42:40.753Z,28.90
2023-02-18T04:43:45.518Z,32.03
2023-02-18T04:44:48.121Z,34.33
2023-02-18T04:45:56.717Z,42.55
2023-02-18T04:46:58.759Z,44.20
2023-02-18T04:48:03.900Z,43.28
2023-02-18T04:49:06.005Z,44.03
2023-02-18T04:50:12.961Z,35.97
2023-02-18T04:51:15.012Z,29.02
2023-02-18T04:52:21.532Z,32.55
2023-02-18T04:53:26.803Z,30.70
2023-02-18T04:54:31.777Z,30.83
2023-02-18T04:55:33.968Z,29.80
2023-02-18T04:56:39.024Z,36.15
2023-02-18T04:57:41.218Z,29.17
2023-02-18T04:58:46.042Z,36.85
2023-02-18T04:59:48.791Z,36.80
2023-02-18T05:00:54.118Z,41.33
2023-02-18T05:01:57.850Z,44.35
2023-02-18T05:03:04.818Z,55.90
2023-02-18T05:04:07.051Z,52.75
2023-02-18T05:05:15.086Z,32.63
2023-02-18T05:06:17.221Z,39.70
2023-02-18T05:07:22.388Z,40.58
2023-02-18T05:08:33.248Z,40.17
2023-02-18T05:09:38.022Z,53.10
2023-02-18T05:10:40.333Z,33.65
2023-02-18T05:11:45.566Z,50.55
2023-02-18T05:12:48.097Z,25.52
2023-02-18T05:13:53.081Z,51.58
2023-02-18T05:14:55.142Z,46.53
2023-02-18T05:15:59.969Z,51.00
2023-02-18T05:17:02.081Z,48.88
2023-02-18T05:18:07.448Z,29.60
2023-02-18T05:19:10.992Z,27.58
2023-02-18T05:20:19.020Z,25.67
2023-02-18T05:21:21.139Z,17.75
2023-02-18T05:22:26.182Z,17.42
2023-02-18T05:23:31.205Z,22.80
2023-02-18T05:24:36.238Z,17.17
2023-02-18T05:25:38.412Z,21.15
2023-02-18T05:26:43.571Z,23.98
2023-02-18T05:27:45.721Z,21.25
2023-02-18T05:28:50.519Z,16.10
2023-02-18T05:29:52.603Z,25.65
2023-02-18T05:30:57.364Z,20.10
2023-02-18T05:31:59.605Z,23.77
2023-02-18T05:33:04.473Z,25.80
2023-02-18T05:34:07.016Z,21.88
2023-02-18T05:35:12.235Z,21.77
2023-02-18T05:36:14.583Z,20.58
2023-02-18T05:37:19.515Z,18.17
2023-02-18T05:38:21.890Z,52.38
2023-02-18T05:39:29.645Z,19.63
2023-02-18T05:40:31.784Z,18.20
2023-02-18T05:41:37.132Z,21.70
2023-02-18T05:42:39.205Z,24.48
2023-02-18T05:43:56.228Z,25.60
2023-02-18T05:45:01.042Z,27.30
2023-02-18T05:46:03.567Z,21.75
2023-02-18T05:47:11.856Z,19.67
2023-02-18T05:48:14.028Z,8.18
2023-02-18T05:49:20.182Z,20.15
2023-02-18T05:50:22.420Z,21.75
2023-02-18T05:51:28.958Z,14.98
2023-02-18T05:52:31.451Z,12.68
2023-02-18T05:53:36.832Z,14.95
2023-02-18T05:54:41.771Z,11.48
2023-02-18T05:55:46.449Z,18.92
2023-02-18T05:56:48.683Z,15.82
2023-02-18T05:57:53.741Z,13.80
2023-02-18T05:58:55.861Z,17.40
2023-02-18T06:00:04.574Z,18.58
2023-02-18T06:01:06.750Z,19.13
2023-02-18T06:02:11.863Z,19.08
2023-02-18T06:03:15.293Z,14.48
2023-02-18T06:04:20.339Z,15.07
2023-02-18T06:05:26.910Z,16.08
2023-02-18T06:06:31.904Z,13.88
2023-02-18T06:07:36.732Z,15.18
2023-02-18T06:08:39.890Z,18.70
2023-02-18T06:09:47.779Z,14.30
2023-02-18T06:10:49.918Z,16.58
2023-02-18T06:11:55.050Z,17.88
2023-02-18T06:12:57.492Z,11.88
2023-02-18T06:14:02.273Z,24.42
2023-02-18T06:15:05.933Z,20.13
2023-02-18T06:16:11.179Z,16.90
2023-02-18T06:17:18.916Z,14.88
2023-02-18T06:18:21.377Z,15.18
2023-02-18T06:19:26.604Z,14.80
2023-02-18T06:20:33.234Z,19.00
2023-02-18T06:21:40.238Z,15.38
2023-02-18T06:22:42.398Z,9.90
2023-02-18T06:23:47.548Z,16.80
2023-02-18T06:24:55.322Z,15.73
2023-02-18T06:25:57.505Z,13.60
2023-02-18T06:27:02.458Z,17.23
2023-02-18T06:28:06.048Z,18.58
2023-02-18T06:29:10.817Z,14.68
2023-02-18T06:30:13.691Z,20.15
2023-02-18T06:31:18.683Z,13.73
2023-02-18T06:32:21.144Z,16.45
2023-02-18T06:33:26.428Z,11.55
2023-02-18T06:34:29.170Z,18.63
2023-02-18T06:35:36.904Z,16.38
2023-02-18T06:36:40.885Z,15.63
2023-02-18T06:37:46.050Z,18.92
2023-02-18T06:38:48.147Z,14.55
2023-02-18T06:39:56.506Z,17.08
2023-02-18T06:40:58.598Z,18.98
2023-02-18T06:42:03.575Z,24.88
2023-02-18T06:43:05.709Z,23.98
2023-02-18T06:44:11.556Z,20.77
2023-02-18T06:45:13.764Z,21.27
2023-02-18T06:46:18.573Z,19.45
2023-02-18T06:47:20.909Z,14.15
2023-02-18T06:48:26.036Z,15.82
2023-02-18T06:49:31.005Z,17.40
2023-02-18T06:50:33.202Z,17.15
2023-02-18T06:51:38.018Z,18.85
2023-02-18T06:52:40.137Z,17.98
2023-02-18T06:53:45.186Z,17.63
2023-02-18T06:54:47.374Z,16.17
2023-02-18T06:55:55.814Z,16.90
2023-02-18T06:56:58.088Z,18.75
2023-02-18T06:58:03.538Z,20.27
2023-02-18T06:59:05.594Z,14.23
2023-02-18T07:00:11.920Z,22.23
2023-02-18T07:01:14.085Z,25.35
2023-02-18T07:02:21.980Z,16.33
2023-02-18T07:03:24.378Z,16.05
2023-02-18T07:04:47.077Z,18.98
2023-02-18T07:05:55.977Z,24.35
2023-02-18T07:07:27.353Z,21.60
2023-02-18T07:08:41.383Z,17.38
2023-02-18T07:09:52.593Z,21.88
2023-02-18T07:11:08.377Z,15.63
2023-02-18T07:12:10.696Z,18.48
2023-02-18T07:13:23.462Z,16.40
2023-02-18T07:14:29.396Z,16.35
2023-02-18T07:15:38.326Z,12.77
2023-02-18T07:16:40.723Z,18.63
2023-02-18T07:17:45.768Z,16.13
2023-02-18T07:18:48.238Z,15.40
2023-02-18T07:19:53.179Z,16.17
2023-02-18T07:20:58.043Z,22.75
2023-02-18T07:22:00.684Z,25.70
2023-02-18T07:23:05.651Z,20.65
2023-02-18T07:24:10.774Z,16.80
2023-02-18T07:25:16.170Z,36.22
2023-02-18T07:26:24.229Z,32.22
2023-02-18T07:27:26.404Z,18.27
2023-02-18T07:28:32.029Z,16.45
2023-02-18T07:29:36.713Z,18.15
2023-02-18T07:30:41.806Z,14.30
2023-02-18T07:31:44.280Z,10.30
2023-02-18T07:32:49.419Z,17.35
2023-02-18T07:33:51.659Z,18.35
2023-02-18T07:34:57.879Z,18.70
2023-02-18T07:36:03.723Z,23.88
2023-02-18T07:37:09.625Z,20.88
2023-02-18T07:38:14.557Z,28.48
2023-02-18T07:39:20.834Z,24.58
2023-02-18T07:40:25.867Z,15.75
2023-02-18T07:41:32.933Z,10.32
2023-02-18T07:42:37.869Z,15.88
2023-02-18T07:43:40.248Z,11.55
2023-02-18T07:44:45.385Z,15.90
2023-02-18T07:45:47.690Z,23.65
2023-02-18T07:46:53.575Z,14.38
2023-02-18T07:47:55.700Z,16.30
2023-02-18T07:49:02.814Z,17.92
2023-02-18T07:50:12.505Z,23.17
2023-02-18T07:51:16.178Z,20.98
2023-02-18T07:52:21.410Z,22.70
2023-02-18T07:53:23.871Z,15.63
2023-02-18T07:54:29.476Z,16.55
2023-02-18T07:55:47.198Z,14.18
2023-02-18T07:56:55.238Z,14.63
2023-02-18T07:58:02.469Z,11.90
2023-02-18T07:59:07.395Z,23.42
2023-02-18T08:00:10.524Z,24.45
2023-02-18T08:01:19.307Z,20.08
2023-02-18T08:02:26.732Z,17.20
2023-02-18T08:03:31.133Z,17.10
2023-02-18T08:04:36.246Z,12.98
2023-02-18T08:05:38.506Z,15.82
2023-02-18T08:07:02.220Z,20.55
2023-02-18T08:08:05.294Z,18.58
2023-02-18T08:09:19.548Z,15.60
2023-02-18T08:10:22.210Z,13.65
2023-02-18T08:11:28.866Z,10.25
2023-02-18T08:12:46.704Z,14.32
2023-02-18T08:13:52.030Z,17.02
2023-02-18T08:14:56.949Z,16.40
2023-02-18T08:16:00.641Z,15.52
2023-02-18T08:17:05.500Z,16.00
2023-02-18T08:18:10.694Z,20.50
2023-02-18T08:19:17.826Z,24.42
2023-02-18T08:20:22.089Z,14.57
2023-02-18T08:21:31.212Z,16.83
2023-02-18T08:22:39.004Z,14.15
2023-02-18T08:23:48.173Z,12.50
2023-02-18T08:24:54.258Z,13.50
2023-02-18T08:25:56.865Z,13.40
2023-02-18T08:27:02.603Z,14.00
2023-02-18T08:28:09.885Z,15.77
2023-02-18T08:29:15.194Z,19.33
2023-02-18T08:30:28.782Z,21.33
2023-02-18T08:31:43.221Z,17.23
2023-02-18T08:32:47.037Z,14.85
2023-02-18T08:33:56.059Z,19.15
2023-02-18T08:35:01.180Z,17.83
2023-02-18T08:36:27.497Z,18.88
2023-02-18T08:37:51.978Z,7.72
2023-02-18T08:38:55.115Z,11.82
2023-02-18T08:40:00.245Z,14.57
2023-02-18T08:41:03.488Z,13.95
2023-02-18T08:42:08.761Z,12.40
2023-02-18T08:43:14.476Z,23.38
2023-02-18T08:44:23.861Z,21.90
2023-02-18T08:45:26.345Z,24.63
2023-02-18T08:46:35.389Z,32.03
2023-02-18T08:48:19.837Z,47.28
2023-02-18T08:49:05.054Z,54.13
2023-02-18T08:50:07.525Z,65.80
2023-02-18T08:51:17.875Z,49.85
2023-02-18T08:52:20.200Z,54.35
2023-02-18T08:53:25.735Z,42.67
2023-02-18T08:54:28.112Z,70.50
2023-02-18T08:55:33.153Z,70.50
2023-02-18T08:56:40.557Z,67.32
2023-02-18T08:57:46.521Z,87.93
2023-02-18T08:58:55.906Z,83.63
2023-02-18T08:59:58.374Z,56.05
2023-02-18T09:01:17.221Z,73.13
2023-02-18T09:02:22.652Z,82.85
2023-02-18T09:03:29.425Z,41.70
2023-02-18T09:04:34.587Z,59.58
2023-02-18T09:05:36.855Z,52.10
2023-02-18T09:06:41.938Z,57.78
2023-02-18T09:07:44.877Z,51.15
2023-02-18T09:08:50.156Z,51.13
2023-02-18T09:09:52.631Z,38.25
2023-02-18T09:11:00.109Z,32.08
2023-02-18T09:12:04.621Z,39.70
2023-02-18T09:13:10.452Z,55.00
2023-02-18T09:14:17.728Z,84.88
2023-02-18T09:15:20.285Z,108.63
2023-02-18T09:16:26.286Z,79.57
2023-02-18T09:17:28.841Z,76.13
2023-02-18T09:18:35.925Z,34.47
2023-02-18T09:19:39.976Z,29.63
2023-02-18T09:20:44.927Z,26.83
2023-02-18T09:21:47.309Z,31.95
2023-02-18T09:22:52.323Z,36.42
2023-02-18T09:23:54.445Z,46.60
2023-02-18T09:24:59.210Z,41.15
2023-02-18T09:26:04.883Z,52.53
2023-02-18T09:27:11.319Z,17.48
2023-02-18T09:28:13.413Z,56.65
2023-02-18T09:29:21.214Z,53.33
2023-02-18T09:30:23.400Z,49.30
2023-02-18T09:31:30.142Z,37.38
2023-02-18T09:32:35.161Z,39.10
2023-02-18T09:33:40.924Z,41.08
2023-02-18T09:34:43.273Z,20.63
2023-02-18T09:35:49.722Z,40.75
2023-02-18T09:36:54.432Z,38.67
2023-02-18T09:37:56.538Z,38.72
2023-02-18T09:39:02.408Z,36.20
2023-02-18T09:40:08.491Z,42.55
2023-02-18T09:41:17.910Z,87.53
2023-02-18T09:42:34.210Z,68.53
2023-02-18T09:43:45.042Z,46.83
2023-02-18T09:44:55.509Z,42.38
2023-02-18T09:45:59.660Z,68.50
2023-02-18T09:47:08.190Z,57.97
2023-02-18T09:48:11.600Z,66.85
2023-02-18T09:49:20.152Z,84.13
2023-02-18T09:50:26.577Z,44.17
2023-02-18T09:51:31.690Z,79.18
2023-02-18T09:52:37.620Z,62.28
2023-02-18T09:53:42.621Z,68.82
2023-02-18T09:54:47.542Z,76.93
2023-02-18T09:55:54.533Z,84.93
2023-02-18T09:56:59.658Z,94.03
2023-02-18T09:58:08.571Z,92.07
2023-02-18T09:59:20.114Z,128.48
2023-02-18T10:00:37.057Z,116.63
2023-02-18T10:01:49.762Z,88.47
2023-02-18T10:03:00.521Z,65.28
2023-02-18T10:04:29.402Z,73.83
2023-02-18T10:07:12.156Z,52.22
2023-02-18T10:08:32.195Z,95.85
2023-02-18T10:09:42.031Z,51.33
2023-02-18T10:10:52.105Z,43.13
2023-02-18T10:12:02.478Z,84.38
2023-02-18T10:13:07.126Z,22.23
2023-02-18T10:14:14.765Z,20.73
2023-02-18T10:15:22.789Z,52.33
2023-02-18T10:16:31.727Z,50.20
2023-02-18T10:17:34.158Z,39.97
2023-02-18T10:18:45.486Z,19.80
2023-02-18T10:19:49.403Z,19.88
2023-02-18T10:21:00.717Z,25.05
2023-02-18T10:22:08.717Z,37.20
2023-02-18T10:23:13.508Z,44.67
2023-02-18T10:24:30.257Z,68.13
2023-02-18T10:25:45.392Z,33.00
2023-02-18T10:26:51.169Z,31.17
2023-02-18T10:27:54.770Z,20.83
2023-02-18T10:29:00.322Z,38.85
2023-02-18T10:30:18.401Z,18.83
2023-02-18T10:31:28.661Z,33.08
2023-02-18T10:32:36.888Z,26.95
2023-02-18T10:33:48.876Z,45.85
2023-02-18T10:35:00.412Z,65.25
2023-02-18T10:37:31.075Z,48.73
2023-02-18T10:38:47.760Z,18.48
2023-02-18T10:40:02.770Z,33.90
2023-02-18T10:41:14.413Z,25.08
2023-02-18T10:43:35.945Z,77.57
2023-02-18T10:44:53.334Z,26.73
2023-02-18T10:46:08.247Z,85.63
2023-02-18T10:47:23.494Z,82.32
2023-02-18T10:48:53.969Z,84.70
2023-02-18T10:50:00.067Z,22.52
2023-02-18T10:51:14.198Z,34.53
2023-02-18T10:52:20.182Z,53.47
2023-02-18T10:53:34.393Z,65.80
2023-02-18T10:54:53.188Z,28.17
2023-02-18T10:55:58.071Z,80.32
2023-02-18T10:57:01.193Z,58.38
2023-02-18T10:58:06.405Z,49.13
2023-02-18T10:59:14.367Z,51.65
2023-02-18T11:00:24.167Z,74.40
2023-02-18T11:01:26.329Z,69.43
2023-02-18T11:02:44.485Z,77.13
2023-02-18T11:03:55.826Z,92.38
2023-02-18T11:05:03.118Z,39.47
2023-02-18T11:06:10.184Z,31.27
2023-02-18T11:07:18.581Z,40.38
2023-02-18T11:08:27.146Z,69.00
2023-02-18T11:09:36.539Z,90.47
2023-02-18T11:10:45.402Z,29.52
2023-02-18T11:11:50.661Z,53.65
2023-02-18T11:13:02.986Z,62.13
2023-02-18T11:14:23.292Z,45.17
2023-02-18T11:15:30.431Z,53.03
2023-02-18T11:16:44.543Z,20.60
2023-02-18T11:18:04.008Z,29.25
2023-02-18T11:19:44.704Z,46.30
2023-02-18T11:21:01.457Z,25.63
2023-02-18T11:22:14.795Z,47.38
2023-02-18T11:23:29.259Z,64.07
2023-02-18T11:24:31.567Z,21.55
2023-02-18T11:25:48.118Z,26.58
2023-02-18T11:27:06.490Z,39.38
2023-02-18T11:28:39.736Z,21.38
2023-02-18T11:29:48.963Z,23.25
2023-02-18T11:31:03.220Z,31.42
2023-02-18T11:32:12.863Z,20.10
2023-02-18T11:33:26.589Z,36.75
2023-02-18T11:34:47.023Z,47.58
2023-02-18T11:36:10.067Z,31.83
2023-02-18T11:37:20.501Z,25.92
2023-02-18T11:38:33.347Z,57.72
2023-02-18T11:39:46.157Z,33.55
2023-02-18T11:41:10.093Z,19.80
2023-02-18T11:42:36.429Z,25.77
2023-02-18T11:43:47.874Z,34.20
2023-02-18T11:44:56.821Z,17.65
2023-02-18T11:46:13.957Z,35.50
2023-02-18T11:47:53.771Z,44.97
2023-02-18T11:49:03.056Z,20.13
2023-02-18T11:50:33.623Z,46.45
2023-02-18T11:51:45.084Z,61.15
2023-02-18T11:52:49.423Z,16.55
2023-02-18T11:54:09.171Z,39.95
2023-02-18T11:55:23.901Z,26.60
2023-02-18T11:56:33.464Z,62.75
2023-02-18T11:57:42.429Z,24.17
2023-02-18T11:59:00.097Z,25.27
2023-02-18T12:00:03.323Z,65.95
2023-02-18T12:01:50.204Z,36.92
2023-02-18T12:02:59.436Z,55.88
2023-02-18T12:04:18.938Z,23.27
2023-02-18T12:05:36.808Z,61.70
2023-02-18T12:06:45.701Z,42.47
2023-02-18T12:07:53.467Z,37.40
2023-02-18T12:09:08.860Z,46.60
2023-02-18T12:10:20.882Z,22.52
2023-02-18T12:11:29.556Z,106.88
2023-02-18T12:12:41.746Z,110.45
2023-02-18T12:13:56.409Z,81.63
2023-02-18T12:15:04.205Z,29.70
2023-02-18T12:16:26.473Z,84.82
2023-02-18T12:17:59.621Z,101.15
2023-02-18T12:19:25.461Z,113.65
2023-02-18T12:21:18.371Z,65.97
2023-02-18T12:22:41.246Z,128.40
2023-02-18T12:24:13.135Z,73.63
2023-02-18T12:26:02.041Z,90.18
2023-02-18T12:27:16.018Z,85.97
2023-02-18T12:28:35.135Z,82.40
2023-02-18T12:30:05.754Z,56.30
2023-02-18T12:31:26.437Z,100.60
2023-02-18T12:32:43.053Z,53.35
2023-02-18T12:33:58.948Z,80.75
2023-02-18T12:35:27.830Z,53.58
2023-02-18T12:36:48.278Z,85.22
2023-02-18T12:38:05.169Z,73.70
2023-02-18T12:39:16.564Z,74.97
2023-02-18T12:40:49.312Z,85.07
2023-02-18T12:42:36.922Z,62.33
2023-02-18T12:43:57.180Z,81.82
2023-02-18T12:45:19.818Z,59.90
2023-02-18T12:46:42.195Z,92.45
2023-02-18T12:48:20.106Z,64.20
2023-02-18T12:49:50.158Z,108.68
2023-02-18T12:51:11.842Z,64.97
2023-02-18T12:52:28.999Z,67.53
2023-02-18T12:53:48.413Z,110.32
2023-02-18T12:55:19.316Z,59.67
2023-02-18T12:56:41.934Z,95.57
2023-02-18T12:57:53.918Z,69.47
2023-02-18T12:59:07.897Z,70.38
2023-02-18T13:00:49.799Z,66.75
2023-02-18T13:02:17.465Z,62.70
2023-02-18T13:03:58.689Z,82.43
2023-02-18T13:05:16.973Z,51.88
2023-02-18T13:06:41.777Z,89.78
2023-02-18T13:08:18.543Z,70.13
2023-02-18T13:09:37.507Z,85.10
2023-02-18T13:10:56.995Z,34.00
2023-02-18T13:12:08.369Z,53.97
2023-02-18T13:13:16.927Z,62.70
2023-02-18T13:14:26.564Z,72.53
2023-02-18T13:15:37.066Z,85.38
2023-02-18T13:16:44.578Z,56.92
2023-02-18T13:17:50.334Z,54.47
2023-02-18T13:19:04.322Z,61.15
2023-02-18T13:20:17.854Z,49.25
2023-02-18T13:21:22.673Z,77.35
2023-02-18T13:22:29.969Z,69.03
2023-02-18T13:23:38.297Z,85.05
2023-02-18T13:24:46.885Z,41.28
2023-02-18T13:25:56.390Z,59.60
2023-02-18T13:27:11.868Z,49.92
2023-02-18T13:28:22.055Z,66.72
2023-02-18T13:29:32.794Z,85.97
2023-02-18T13:30:42.394Z,66.57
2023-02-18T13:31:56.895Z,59.53
2023-02-18T13:33:08.687Z,67.38
2023-02-18T13:34:24.249Z,66.63
2023-02-18T13:35:37.685Z,83.25
2023-02-18T13:36:55.923Z,101.63
2023-02-18T13:38:12.411Z,80.55
2023-02-18T13:39:22.910Z,81.15
2023-02-18T13:40:30.075Z,136.52
2023-02-18T13:41:39.982Z,120.10
2023-02-18T13:42:42.224Z,121.63
2023-02-18T13:43:47.966Z,112.22
2023-02-18T13:45:22.766Z,96.90
2023-02-18T13:46:28.559Z,122.32
2023-02-18T13:47:38.699Z,123.88
2023-02-18T13:48:52.384Z,85.30
2023-02-18T13:49:57.746Z,121.95
2023-02-18T13:51:03.660Z,76.45
2023-02-18T13:52:09.436Z,94.43
2023-02-18T13:53:22.991Z,96.28
2023-02-18T13:54:35.183Z,93.88
2023-02-18T13:55:53.425Z,115.22
2023-02-18T13:57:04.244Z,44.28
2023-02-18T13:58:14.256Z,78.18
2023-02-18T13:59:24.518Z,81.10
2023-02-18T14:00:37.071Z,107.43
2023-02-18T14:01:47.014Z,85.28
2023-02-18T14:03:00.533Z,73.38
2023-02-18T14:04:06.770Z,91.90
2023-02-18T14:05:27.317Z,93.00
2023-02-18T14:06:32.387Z,71.10
2023-02-18T14:07:54.223Z,77.18
2023-02-18T14:09:42.123Z,67.90
2023-02-18T14:11:22.317Z,28.52
2023-02-18T14:12:38.920Z,88.88
2023-02-18T14:13:43.089Z,64.25
2023-02-18T14:14:49.439Z,59.70
2023-02-18T14:16:01.693Z,61.28
2023-02-18T14:17:39.660Z,60.67
2023-02-18T14:19:03.484Z,57.53
2023-02-18T14:20:44.959Z,64.80
2023-02-18T14:21:49.958Z,90.32
2023-02-18T14:22:53.254Z,84.22
2023-02-18T14:24:06.375Z,90.38
2023-02-18T14:25:22.626Z,99.25
2023-02-18T14:26:32.568Z,105.65
2023-02-18T14:27:37.943Z,79.97
2023-02-18T14:28:45.054Z,113.80
2023-02-18T14:29:50.508Z,50.00
2023-02-18T14:30:53.960Z,78.93
2023-02-18T14:32:06.164Z,70.78
2023-02-18T14:33:16.429Z,70.93
2023-02-18T14:35:10.526Z,88.25
2023-02-18T14:36:29.730Z,89.50
2023-02-18T14:38:10.423Z,96.93
2023-02-18T14:39:39.750Z,94.63
2023-02-18T14:40:56.825Z,85.38
2023-02-18T14:42:05.949Z,81.43
2023-02-18T14:43:21.077Z,69.22
2023-02-18T14:44:51.846Z,57.58
2023-02-18T14:46:16.419Z,87.47
2023-02-18T14:47:29.430Z,51.33
2023-02-18T14:48:58.115Z,88.03
2023-02-18T14:50:05.793Z,58.10
2023-02-18T14:51:09.518Z,75.97
2023-02-18T14:52:25.011Z,77.30
2023-02-18T14:53:28.356Z,104.32
2023-02-18T14:54:34.286Z,156.80
2023-02-18T14:55:41.640Z,119.15
2023-02-18T14:56:57.965Z,78.03
2023-02-18T14:58:05.914Z,78.28
2023-02-18T14:59:13.367Z,73.63